createdAt,value
2023-02-14T00:00:57.398Z,103688.56
2023-02-14T00:03:24.413Z,103692.78
2023-02-14T00:05:51.135Z,103673.63
2023-02-14T00:08:18.186Z,103689.28
2023-02-14T00:10:45.497Z,103585.94
2023-02-14T00:13:13.743Z,103537.03
2023-02-14T00:15:41.918Z,103577.28
2023-02-14T00:18:08.730Z,103676.50
2023-02-14T00:20:35.515Z,103682.50
2023-02-14T00:23:02.373Z,103670.41
2023-02-14T00:25:30.276Z,103656.59
2023-02-14T00:27:57.317Z,103565.69
2023-02-14T00:30:26.385Z,103637.41
2023-02-14T00:32:54.629Z,103671.84
2023-02-14T00:35:23.600Z,103671.19
2023-02-14T00:37:50.580Z,103662.91
2023-02-14T00:40:17.683Z,103657.19
2023-02-14T00:42:47.303Z,103672.47
2023-02-14T00:45:20.487Z,103634.13
2023-02-14T00:47:47.304Z,103647.88
2023-02-14T00:50:16.460Z,103654.06
2023-02-14T00:52:43.327Z,103588.91
2023-02-14T00:55:11.621Z,103671.25
2023-02-14T00:57:38.622Z,103667.22
2023-02-14T01:00:07.035Z,103637.41
2023-02-14T01:02:34.045Z,103555.75
2023-02-14T01:05:03.210Z,103619.06
2023-02-14T01:07:31.456Z,103662.94
2023-02-14T01:09:58.106Z,103516.75
2023-02-14T01:12:24.856Z,103604.22
2023-02-14T01:14:51.791Z,103564.22
2023-02-14T01:17:18.544Z,103654.28
2023-02-14T01:19:45.825Z,103514.06
2023-02-14T01:22:12.638Z,103656.94
2023-02-14T01:24:40.822Z,103655.13
2023-02-14T01:27:07.543Z,103556.41
2023-02-14T01:29:34.464Z,103633.41
2023-02-14T01:32:01.421Z,103498.44
2023-02-14T01:34:28.260Z,103664.28
2023-02-14T01:36:55.298Z,103655.19
2023-02-14T01:39:22.071Z,103657.78
2023-02-14T01:41:50.187Z,103663.94
2023-02-14T01:44:55.557Z,103654.56
2023-02-14T01:47:22.882Z,103659.69
2023-02-14T01:49:55.052Z,103564.13
2023-02-14T01:52:26.348Z,103664.44
2023-02-14T01:54:55.191Z,103644.50
2023-02-14T01:57:28.481Z,103627.69
2023-02-14T01:59:59.612Z,103645.91
2023-02-14T02:02:26.618Z,103637.19
2023-02-14T02:04:56.006Z,103633.81
2023-02-14T02:07:26.510Z,103634.00
2023-02-14T02:09:56.613Z,103637.66
2023-02-14T02:12:25.035Z,103627.94
2023-02-14T02:14:55.272Z,103594.56
2023-02-14T02:17:33.601Z,103491.94
2023-02-14T02:20:34.359Z,103630.16
2023-02-14T02:23:41.774Z,103616.13
2023-02-14T02:26:52.322Z,103585.63
2023-02-14T02:29:58.653Z,103593.47
2023-02-14T02:32:59.616Z,103621.91
2023-02-14T02:35:50.221Z,103615.75
2023-02-14T02:38:35.465Z,103602.19
2023-02-14T02:41:11.850Z,103581.94
2023-02-14T02:43:44.665Z,103565.41
2023-02-14T02:46:21.522Z,103537.31
2023-02-14T02:48:57.767Z,103576.66
2023-02-14T02:51:33.721Z,103420.06
2023-02-14T02:54:08.919Z,103611.47
2023-02-14T02:56:43.651Z,103584.94
2023-02-14T02:59:17.999Z,103604.81
2023-02-14T03:02:01.814Z,103602.00
2023-02-14T03:04:31.120Z,103601.16
2023-02-14T03:07:00.259Z,103602.59
2023-02-14T03:09:50.577Z,103601.47
2023-02-14T03:12:28.790Z,103597.81
2023-02-14T03:15:02.507Z,103608.50
2023-02-14T03:17:36.397Z,103578.09
2023-02-14T03:20:18.855Z,103515.31
2023-02-14T03:22:55.467Z,103592.47
2023-02-14T03:25:42.334Z,103592.75
2023-02-14T03:28:16.040Z,103603.84
2023-02-14T03:30:54.035Z,103601.16
2023-02-14T03:33:29.092Z,103583.06
2023-02-14T03:36:01.583Z,103586.28
2023-02-14T03:38:34.709Z,103418.44
2023-02-14T03:41:06.901Z,103583.44
2023-02-14T03:43:37.705Z,103549.06
2023-02-14T03:46:10.329Z,103573.81
2023-02-14T03:48:39.901Z,103523.19
2023-02-14T03:51:13.051Z,103393.09
2023-02-14T03:53:45.018Z,103598.94
2023-02-14T03:56:16.144Z,103545.25
2023-02-14T03:58:46.607Z,103495.00
2023-02-14T04:01:17.091Z,103581.78
2023-02-14T04:03:45.350Z,103564.91
2023-02-14T04:06:12.395Z,103549.56
2023-02-14T04:08:39.343Z,103564.69
2023-02-14T04:11:07.818Z,103570.41
2023-02-14T04:13:35.547Z,103368.44
2023-02-14T04:16:02.774Z,103447.72
2023-02-14T04:18:31.435Z,103481.97
2023-02-14T04:20:58.822Z,103588.03
2023-02-14T04:23:26.186Z,103537.00
2023-02-14T04:25:52.904Z,103544.03
2023-02-14T04:28:21.253Z,103552.13
2023-02-14T04:30:48.528Z,103580.31
2023-02-14T04:33:16.298Z,103535.78
2023-02-14T04:35:43.397Z,103583.31
2023-02-14T04:38:12.550Z,103582.59
2023-02-14T04:40:39.460Z,103578.25
2023-02-14T04:43:06.455Z,103538.22
2023-02-14T04:45:34.785Z,103406.47
2023-02-14T04:48:01.908Z,103365.78
2023-02-14T04:50:28.655Z,103407.25
2023-02-14T04:52:56.856Z,103584.47
2023-02-14T04:55:23.905Z,103589.97
2023-02-14T04:57:50.628Z,103567.75
2023-02-14T05:00:19.476Z,103523.13
2023-02-14T05:02:47.878Z,103365.47
2023-02-14T05:05:15.876Z,103535.69
2023-02-14T05:07:43.397Z,103550.41
2023-02-14T05:10:11.084Z,103366.34
2023-02-14T05:12:38.134Z,103435.31
2023-02-14T05:15:05.294Z,103548.09
2023-02-14T05:17:32.398Z,103457.75
2023-02-14T05:20:00.819Z,103558.44
2023-02-14T05:22:27.626Z,103550.38
2023-02-14T05:24:54.360Z,103525.78
2023-02-14T05:27:21.103Z,103419.00
2023-02-14T05:29:47.909Z,103545.88
2023-02-14T05:32:14.759Z,103475.53
2023-02-14T05:34:41.479Z,103560.25
2023-02-14T05:37:10.129Z,103546.91
2023-02-14T05:39:37.011Z,103506.56
2023-02-14T05:42:04.643Z,103545.25
2023-02-14T05:44:31.425Z,103556.19
2023-02-14T05:46:58.231Z,103506.88
2023-02-14T05:49:25.599Z,103448.06
2023-02-14T05:51:52.425Z,103417.88
2023-02-14T05:54:23.497Z,103331.63
2023-02-14T05:56:50.384Z,103506.50
2023-02-14T05:59:19.490Z,103475.50
2023-02-14T06:01:49.722Z,103426.66
2023-02-14T06:04:17.120Z,103504.09
2023-02-14T06:06:44.969Z,103533.53
2023-02-14T06:09:12.074Z,103509.47
2023-02-14T06:11:43.163Z,103553.19
2023-02-14T06:14:10.347Z,103472.75
2023-02-14T06:16:43.479Z,103375.53
2023-02-14T06:21:54.492Z,103498.84
2023-02-14T06:24:21.722Z,103389.09
2023-02-14T06:26:51.226Z,103438.50
2023-02-14T06:29:18.678Z,103566.84
2023-02-14T06:31:46.947Z,103496.38
2023-02-14T06:34:16.881Z,103549.97
2023-02-14T06:36:43.904Z,103556.31
2023-02-14T06:39:11.365Z,103527.56
2023-02-14T06:41:38.153Z,103562.75
2023-02-14T06:44:06.488Z,103560.25
2023-02-14T06:46:33.532Z,103509.28
2023-02-14T06:49:00.571Z,103438.09
2023-02-14T06:51:27.471Z,103415.56
2023-02-14T06:53:54.780Z,103562.97
2023-02-14T06:56:23.002Z,103476.78
2023-02-14T06:58:50.112Z,103527.53
2023-02-14T07:01:24.532Z,103531.69
2023-02-14T07:06:58.482Z,103466.19
2023-02-14T07:09:25.520Z,103438.19
2023-02-14T07:12:06.967Z,103541.53
2023-02-14T07:14:33.836Z,103435.66
2023-02-14T07:17:07.797Z,103471.66
2023-02-14T07:19:37.360Z,103541.44
2023-02-14T07:22:04.356Z,103546.63
2023-02-14T07:24:31.369Z,103552.50
2023-02-14T07:26:58.521Z,103546.47
2023-02-14T07:29:25.316Z,103458.66
2023-02-14T07:31:52.491Z,103334.59
2023-02-14T07:34:22.276Z,103318.88
2023-02-14T07:36:49.407Z,103312.19
2023-02-14T07:39:16.172Z,103454.69
2023-02-14T07:41:42.949Z,103432.16
2023-02-14T07:44:09.940Z,103342.13
2023-02-14T07:46:36.846Z,103404.28
2023-02-14T07:49:03.766Z,103555.03
2023-02-14T07:51:32.149Z,103426.16
2023-02-14T07:53:59.182Z,103553.59
2023-02-14T07:56:26.170Z,103551.13
2023-02-14T07:58:53.158Z,103529.06
2023-02-14T08:01:20.029Z,103491.84
2023-02-14T08:03:47.104Z,103546.28
2023-02-14T08:06:14.943Z,103485.75
2023-02-14T08:08:43.644Z,103527.78
2023-02-14T08:11:10.673Z,103507.31
2023-02-14T08:13:37.586Z,103488.16
2023-02-14T08:16:04.892Z,103426.94
2023-02-14T08:18:34.890Z,103535.63
2023-02-14T08:21:03.079Z,103548.38
2023-02-14T08:23:32.527Z,103560.78
2023-02-14T08:26:01.392Z,103384.34
2023-02-14T08:28:29.007Z,103379.56
2023-02-14T08:30:56.113Z,103349.72
2023-02-14T08:33:23.225Z,103557.34
2023-02-14T08:35:51.331Z,103548.06
2023-02-14T08:38:18.291Z,103545.78
2023-02-14T08:59:29.852Z,103520.38
2023-02-14T09:01:56.770Z,103549.53
2023-02-14T09:04:23.801Z,103541.16
2023-02-14T09:06:50.713Z,103547.25
2023-02-14T09:09:17.448Z,103553.97
2023-02-14T09:11:44.268Z,103533.88
2023-02-14T09:14:11.141Z,103540.59
2023-02-14T09:16:40.635Z,103553.38
2023-02-14T09:19:07.433Z,103392.00
2023-02-14T09:21:34.205Z,103551.97
2023-02-14T09:24:00.920Z,103546.81
2023-02-14T09:26:27.686Z,103523.22
2023-02-14T09:28:54.545Z,103526.63
2023-02-14T09:31:23.866Z,103542.91
2023-02-14T09:33:52.504Z,103534.56
2023-02-14T09:36:19.330Z,103535.28
2023-02-14T09:38:46.164Z,103543.03
2023-02-14T09:41:32.840Z,103515.56
2023-02-14T09:44:02.476Z,103512.59
2023-02-14T09:46:31.289Z,103534.06
2023-02-14T09:49:03.219Z,103527.22
2023-02-14T09:51:32.051Z,103525.41
2023-02-14T09:54:02.600Z,103528.91
2023-02-14T09:56:50.415Z,103529.09
2023-02-14T09:59:24.350Z,103519.72
2023-02-14T10:01:57.896Z,103530.81
2023-02-14T10:04:32.233Z,103526.78
2023-02-14T10:07:06.485Z,103480.22
2023-02-14T10:09:50.752Z,103512.72
2023-02-14T10:12:26.662Z,103500.63
2023-02-14T10:14:55.068Z,103517.91
2023-02-14T10:17:29.017Z,103517.03
2023-02-14T10:20:02.772Z,103519.53
2023-02-14T10:22:39.711Z,103478.31
2023-02-14T10:25:16.497Z,103513.81
2023-02-14T10:27:47.076Z,103526.38
2023-02-14T10:30:16.432Z,103515.81
2023-02-14T10:32:47.903Z,103500.03
2023-02-14T10:35:31.329Z,103514.88
2023-02-14T10:38:07.444Z,103506.13
2023-02-14T10:40:46.672Z,103512.44
2023-02-14T10:43:23.373Z,103515.06
2023-02-14T10:46:02.142Z,103511.53
2023-02-14T10:48:48.174Z,103487.19
2023-02-14T10:51:21.601Z,103504.84
2023-02-14T10:53:57.836Z,103461.94
2023-02-14T10:56:32.482Z,103467.91
2023-02-14T10:59:02.768Z,103499.97
2023-02-14T11:01:29.699Z,103500.69
2023-02-14T11:04:00.276Z,103496.94
2023-02-14T11:06:28.968Z,103491.59
2023-02-14T11:08:58.635Z,103475.72
2023-02-14T11:11:31.139Z,103478.09
2023-02-14T11:13:58.034Z,103456.19
2023-02-14T11:16:33.861Z,103482.41
2023-02-14T11:19:19.142Z,103477.00
2023-02-14T11:21:50.439Z,103483.94
2023-02-14T11:24:19.485Z,103478.81
2023-02-14T11:26:48.746Z,103474.69
2023-02-14T11:29:26.135Z,103481.13
2023-02-14T11:31:53.151Z,103475.91
2023-02-14T11:34:29.983Z,103463.38
2023-02-14T11:36:58.468Z,103476.59
2023-02-14T11:39:30.251Z,103460.44
2023-02-14T11:41:59.168Z,103463.47
2023-02-14T11:44:27.870Z,103455.63
2023-02-14T11:46:59.642Z,103454.63
2023-02-14T11:49:29.871Z,103451.13
2023-02-14T11:52:00.837Z,103436.97
2023-02-14T11:54:35.251Z,103452.03
2023-02-14T11:57:07.620Z,103444.59
2023-02-14T11:59:39.388Z,103443.38
2023-02-14T12:02:21.995Z,103444.66
2023-02-14T12:04:51.043Z,103424.25
2023-02-14T12:07:22.889Z,103437.63
2023-02-14T12:10:08.528Z,103422.63
2023-02-14T12:12:35.860Z,103421.22
2023-02-14T12:15:32.137Z,103419.09
2023-02-14T12:18:26.272Z,103422.03
2023-02-14T12:21:23.473Z,103360.59
2023-02-14T12:24:02.641Z,103405.53
2023-02-14T12:26:33.459Z,103408.84
2023-02-14T12:29:10.320Z,103410.91
2023-02-14T12:31:37.581Z,103408.47
2023-02-14T12:34:07.718Z,103377.91
2023-02-14T12:37:02.859Z,103398.97
2023-02-14T12:39:40.050Z,103392.72
2023-02-14T12:42:19.289Z,103385.66
2023-02-14T12:44:58.687Z,103305.28
2023-02-14T12:47:36.401Z,103263.09
2023-02-14T12:50:27.803Z,103312.81
2023-02-14T12:53:31.253Z,103364.88
2023-02-14T12:56:08.711Z,103372.63
2023-02-14T12:58:45.181Z,103368.59
2023-02-14T13:01:38.340Z,103371.56
2023-02-14T13:04:33.037Z,103315.81
2023-02-14T13:07:06.791Z,103296.50
2023-02-14T13:09:40.548Z,103284.50
2023-02-14T13:12:24.452Z,103290.50
2023-02-14T13:15:04.929Z,103346.56
2023-02-14T13:17:38.090Z,103293.84
2023-02-14T13:20:25.210Z,103353.66
2023-02-14T13:22:54.955Z,103328.06
2023-02-14T13:25:27.183Z,103336.81
2023-02-14T13:28:02.396Z,103235.97
2023-02-14T13:30:32.282Z,103263.44
2023-02-14T13:33:06.614Z,103193.97
2023-02-14T13:35:36.848Z,103237.56
2023-02-14T13:38:12.580Z,103287.72
2023-02-14T13:40:42.697Z,103181.47
2023-02-14T13:43:10.981Z,103292.41
2023-02-14T13:45:58.808Z,103297.50
2023-02-14T13:48:28.544Z,103268.22
2023-02-14T13:50:58.523Z,103231.63
2023-02-14T13:53:41.954Z,103290.78
2023-02-14T13:56:33.868Z,103294.00
2023-02-14T14:02:47.057Z,103288.00
2023-02-14T14:05:50.218Z,103284.66
2023-02-14T14:08:42.120Z,103251.50
2023-02-14T14:15:30.548Z,103135.69
2023-02-14T14:19:04.508Z,103272.56
2023-02-14T14:22:09.993Z,103194.28
2023-02-14T14:42:18.845Z,103194.03
2023-02-14T14:44:51.893Z,103192.13
2023-02-14T14:47:33.091Z,103263.72
2023-02-14T14:50:46.016Z,103102.56
2023-02-14T14:56:47.971Z,103238.25
2023-02-14T14:59:45.537Z,103168.44
2023-02-14T15:02:27.634Z,103105.75
2023-02-14T15:05:19.191Z,103254.63
2023-02-14T15:08:25.338Z,103078.03
2023-02-14T15:11:08.029Z,103118.16
2023-02-14T15:14:12.380Z,103265.72
2023-02-14T15:16:46.095Z,103101.56
2023-02-14T15:19:21.230Z,103164.34
2023-02-14T15:21:48.268Z,103254.06
2023-02-14T15:24:18.969Z,103252.44
2023-02-14T15:26:50.156Z,103190.69
2023-02-14T15:29:24.781Z,103224.88
2023-02-14T15:31:57.670Z,103219.84
2023-02-14T15:34:29.695Z,103231.94
2023-02-14T15:36:58.511Z,103191.56
2023-02-14T15:39:35.127Z,103227.88
2023-02-14T15:42:05.145Z,103145.59
2023-02-14T15:44:33.705Z,103189.72
2023-02-14T15:47:03.986Z,103081.53
2023-02-14T15:49:35.576Z,103241.19
2023-02-14T15:52:04.677Z,103110.28
2023-02-14T15:54:37.366Z,103196.56
2023-02-14T15:57:07.887Z,103106.88
2023-02-14T15:59:36.323Z,103239.53
2023-02-14T16:02:15.486Z,103132.09
2023-02-14T16:04:51.583Z,103165.53
2023-02-14T16:07:41.087Z,103246.25
2023-02-14T16:10:21.602Z,103182.69
2023-02-14T16:12:59.186Z,103253.59
2023-02-14T16:15:30.987Z,103063.03
2023-02-14T16:17:59.548Z,103188.06
2023-02-14T16:20:43.613Z,103097.91
2023-02-14T16:23:26.264Z,103198.91
2023-02-14T16:25:53.992Z,103236.31
2023-02-14T16:28:22.320Z,103069.94
2023-02-14T16:30:57.253Z,103202.13
2023-02-14T16:33:27.151Z,103189.31
2023-02-14T16:35:56.352Z,103145.78
2023-02-14T16:38:24.102Z,103230.34
2023-02-14T16:40:53.389Z,103045.78
2023-02-14T16:43:22.505Z,103059.72
2023-02-14T16:45:49.624Z,103229.88
2023-02-14T16:48:18.787Z,103237.41
2023-02-14T16:50:46.440Z,103073.63
2023-02-14T16:53:23.847Z,103056.63
2023-02-14T16:55:53.194Z,103177.59
2023-02-14T16:58:24.167Z,103252.84
2023-02-14T17:00:51.418Z,103052.38
2023-02-14T17:03:18.386Z,103040.72
2023-02-14T17:05:45.864Z,103169.59
2023-02-14T17:08:14.268Z,103268.19
2023-02-14T17:10:43.421Z,103206.16
2023-02-14T17:13:12.201Z,103176.56
2023-02-14T17:15:43.249Z,103049.44
2023-02-14T17:18:15.400Z,103149.88
2023-02-14T17:20:42.823Z,103110.63
2023-02-14T17:23:09.687Z,103185.50
2023-02-14T17:25:39.137Z,103277.91
2023-02-14T17:28:06.348Z,103061.81
2023-02-14T17:30:33.229Z,103085.97
2023-02-14T17:33:03.308Z,103124.19
2023-02-14T17:35:30.188Z,103042.19
2023-02-14T17:37:59.533Z,103206.41
2023-02-14T17:40:27.330Z,103138.88
2023-02-14T17:42:54.473Z,103100.19
2023-02-14T17:45:23.144Z,103251.66
2023-02-14T17:47:50.213Z,103175.28
2023-02-14T17:50:18.859Z,103063.81
2023-02-14T17:52:45.710Z,103120.44
2023-02-14T17:55:13.273Z,103187.09
2023-02-14T17:57:42.408Z,103265.41
2023-02-14T18:00:12.174Z,103214.84
2023-02-14T18:02:40.261Z,103174.56
2023-02-14T18:05:10.057Z,103261.00
2023-02-14T18:07:41.746Z,103051.34
2023-02-14T18:10:09.937Z,103263.75
2023-02-14T18:12:36.839Z,103042.13
2023-02-14T18:15:04.128Z,103168.25
2023-02-14T18:17:31.248Z,103255.00
2023-02-14T18:19:59.409Z,103211.91
2023-02-14T18:22:26.946Z,103176.16
2023-02-14T18:24:55.665Z,103112.31
2023-02-14T18:27:22.634Z,103172.53
2023-02-14T18:29:50.166Z,103252.34
2023-02-14T18:32:19.253Z,103232.78
2023-02-14T18:34:46.125Z,103222.25
2023-02-14T18:37:16.861Z,103175.78
2023-02-14T18:39:45.211Z,103213.97
2023-02-14T18:42:18.066Z,103003.97
2023-02-14T18:44:46.746Z,103134.72
2023-02-14T18:47:15.900Z,103171.31
2023-02-14T18:49:42.836Z,103070.53
2023-02-14T18:52:13.606Z,103044.38
2023-02-14T18:54:40.523Z,103232.16
2023-02-14T18:57:07.304Z,103209.78
2023-02-14T18:59:39.323Z,103073.19
2023-02-14T19:02:09.157Z,103138.09
2023-02-14T19:04:36.679Z,102972.63
2023-02-14T19:07:05.223Z,103214.31
2023-02-14T19:09:32.331Z,103141.59
2023-02-14T19:11:59.733Z,103128.38
2023-02-14T19:14:26.504Z,103224.94
2023-02-14T19:16:55.724Z,103127.44
2023-02-14T19:19:23.156Z,103039.31
2023-02-14T19:21:53.942Z,103032.25
2023-02-14T19:24:21.569Z,103216.53
2023-02-14T19:26:51.277Z,103224.31
2023-02-14T19:29:20.200Z,103132.13
2023-02-14T19:31:49.957Z,103106.16
2023-02-14T19:34:20.548Z,103215.06
2023-02-14T19:36:48.079Z,103009.41
2023-02-14T19:39:16.031Z,103237.53
2023-02-14T19:41:43.668Z,103035.63
2023-02-14T19:44:12.556Z,103071.53
2023-02-14T19:46:40.468Z,103158.34
2023-02-14T19:49:07.525Z,103098.34
2023-02-14T19:51:37.244Z,103100.31
2023-02-14T19:54:07.246Z,103143.63
2023-02-14T19:56:35.676Z,103039.53
2023-02-14T19:59:07.889Z,103010.56
2023-02-14T20:01:37.001Z,103109.06
2023-02-14T20:04:05.594Z,103225.06
2023-02-14T20:06:32.706Z,102996.06
2023-02-14T20:09:01.411Z,103132.47
2023-02-14T20:11:34.513Z,103201.16
2023-02-14T20:14:02.448Z,103101.09
2023-02-14T20:16:35.376Z,103106.44
2023-02-14T20:19:03.034Z,102952.84
2023-02-14T20:21:30.091Z,103210.28
2023-02-14T20:23:58.229Z,103103.34
2023-02-14T20:26:27.596Z,103134.38
2023-02-14T20:28:57.571Z,102984.13
2023-02-14T20:31:24.813Z,102995.31
2023-02-14T20:33:51.816Z,103137.22
2023-02-14T20:38:46.306Z,103173.00
2023-02-14T20:41:14.596Z,103162.97
2023-02-14T20:43:44.065Z,103161.00
2023-02-14T20:46:10.941Z,103187.63
2023-02-14T20:48:37.844Z,103002.84
2023-02-14T20:51:11.609Z,103170.41
2023-02-14T20:53:41.508Z,103162.53
2023-02-14T20:56:08.892Z,103118.63
2023-02-14T20:58:37.644Z,103166.09
2023-02-14T21:01:10.428Z,103017.38
2023-02-14T21:03:37.434Z,103183.50
2023-02-14T21:06:05.773Z,103028.91
2023-02-14T21:08:33.654Z,103111.16
2023-02-14T21:11:03.580Z,103103.97
2023-02-14T21:20:26.050Z,103175.38
2023-02-14T21:23:29.332Z,103065.84
2023-02-14T21:33:09.540Z,103137.72
2023-02-14T21:35:38.390Z,102958.28
2023-02-14T21:38:07.689Z,102905.00
2023-02-14T21:40:35.001Z,103066.72
2023-02-14T21:43:14.382Z,102919.84
2023-02-14T21:45:50.113Z,102900.31
2023-02-14T21:48:17.061Z,103133.72
2023-02-14T21:50:43.773Z,103125.88
2023-02-14T21:53:10.652Z,103114.00
2023-02-14T21:55:37.509Z,103066.19
2023-02-14T21:58:06.049Z,103086.59
2023-02-14T22:00:33.011Z,102999.19
2023-02-14T22:02:59.965Z,103131.41
2023-02-14T22:05:29.443Z,103153.13
2023-02-14T22:07:57.519Z,103039.78
2023-02-14T22:10:25.364Z,103092.25
2023-02-14T22:13:02.374Z,103099.44
2023-02-14T22:15:30.920Z,102928.69
2023-02-14T22:18:00.149Z,102927.50
2023-02-14T22:20:29.025Z,102996.66
2023-02-14T22:22:55.789Z,102960.38
2023-02-14T22:25:22.510Z,103122.34
2023-02-14T22:27:49.291Z,103120.00
2023-02-14T22:30:16.482Z,103081.53
2023-02-14T22:32:44.829Z,102937.28
2023-02-14T22:35:14.916Z,103115.13
2023-02-14T22:37:41.786Z,102884.97
2023-02-14T22:40:09.469Z,103091.88
2023-02-14T22:42:38.999Z,103087.03
2023-02-14T22:45:06.533Z,102950.34
2023-02-14T22:47:33.446Z,103004.91
2023-02-14T22:50:05.189Z,103121.56
2023-02-14T22:52:34.983Z,103099.63
2023-02-14T22:55:04.801Z,103067.22
2023-02-14T22:57:34.629Z,102964.34
2023-02-14T23:00:11.873Z,102955.75
2023-02-14T23:02:39.136Z,103114.13
2023-02-14T23:05:08.017Z,103096.25
2023-02-14T23:07:34.847Z,102956.22
2023-02-14T23:10:01.615Z,103085.72
2023-02-14T23:12:28.425Z,103101.41
2023-02-14T23:14:55.209Z,102847.88
2023-02-14T23:17:22.287Z,103088.34
2023-02-14T23:19:49.063Z,103087.81
2023-02-14T23:22:22.674Z,102996.88
2023-02-14T23:24:51.168Z,102877.72
2023-02-14T23:27:20.515Z,102887.16
2023-02-14T23:29:47.420Z,102947.31
2023-02-14T23:32:14.808Z,102873.94
2023-02-14T23:34:43.163Z,103093.19
2023-02-14T23:37:11.409Z,103074.56
2023-02-14T23:39:40.129Z,103073.22
2023-02-14T23:42:08.865Z,103086.38
2023-02-14T23:44:36.130Z,102953.38
2023-02-14T23:47:05.158Z,103075.66
2023-02-14T23:49:33.498Z,103079.66
2023-02-14T23:52:02.070Z,102857.63
2023-02-14T23:54:29.075Z,103004.28
2023-02-14T23:56:57.551Z,103085.13
2023-02-14T23:59:24.883Z,103005.94
